sensor_id;sensor_type;location;lat;lon;timestamp;P1;durP1;ratioP1;P2;durP2;ratioP2
16928;SDS011;8581;47.334;11.190;2024-03-23T00:56:19;0.80;;;0.80;;
16928;SDS011;8581;47.334;11.190;2024-03-23T00:58:52;0.80;;;0.80;;
16928;SDS011;8581;47.334;11.190;2024-03-23T01:01:24;0.70;;;0.70;;
16928;SDS011;8581;47.334;11.190;2024-03-23T01:03:56;0.90;;;0.77;;
16928;SDS011;8581;47.334;11.190;2024-03-23T01:06:28;1.00;;;0.90;;
16928;SDS011;8581;47.334;11.190;2024-03-23T01:09:00;1.67;;;1.00;;
16928;SDS011;8581;47.334;11.190;2024-03-23T01:11:32;1.03;;;0.90;;
16928;SDS011;8581;47.334;11.190;2024-03-23T01:14:04;1.17;;;0.87;;
16928;SDS011;8581;47.334;11.190;2024-03-23T01:16:37;1.67;;;0.80;;
16928;SDS011;8581;47.334;11.190;2024-03-23T01:19:09;1.00;;;1.00;;
16928;SDS011;8581;47.334;11.190;2024-03-23T01:21:41;0.97;;;0.90;;
16928;SDS011;8581;47.334;11.190;2024-03-23T01:24:13;0.97;;;0.97;;
16928;SDS011;8581;47.334;11.190;2024-03-23T01:26:45;2.07;;;0.87;;
16928;SDS011;8581;47.334;11.190;2024-03-23T01:29:17;1.43;;;1.00;;
16928;SDS011;8581;47.334;11.190;2024-03-23T01:31:50;1.47;;;1.00;;
16928;SDS011;8581;47.334;11.190;2024-03-23T01:34:22;1.10;;;0.90;;
16928;SDS011;8581;47.334;11.190;2024-03-23T01:36:54;0.77;;;0.77;;
16928;SDS011;8581;47.334;11.190;2024-03-23T01:39:26;1.57;;;0.97;;
16928;SDS011;8581;47.334;11.190;2024-03-23T01:41:58;1.00;;;0.90;;
16928;SDS011;8581;47.334;11.190;2024-03-23T01:44:30;1.07;;;0.93;;
16928;SDS011;8581;47.334;11.190;2024-03-23T01:47:03;1.27;;;1.17;;
16928;SDS011;8581;47.334;11.190;2024-03-23T01:49:35;0.93;;;0.90;;
16928;SDS011;8581;47.334;11.190;2024-03-23T01:52:07;1.30;;;1.10;;
16928;SDS011;8581;47.334;11.190;2024-03-23T01:54:38;0.80;;;0.80;;
16928;SDS011;8581;47.334;11.190;2024-03-23T01:57:11;1.33;;;1.00;;
16928;SDS011;8581;47.334;11.190;2024-03-23T01:59:43;0.90;;;0.90;;
16928;SDS011;8581;47.334;11.190;2024-03-23T02:02:15;1.00;;;1.00;;
16928;SDS011;8581;47.334;11.190;2024-03-23T02:04:47;1.00;;;0.90;;
16928;SDS011;8581;47.334;11.190;2024-03-23T02:07:19;0.80;;;0.80;;
16928;SDS011;8581;47.334;11.190;2024-03-23T02:09:51;0.80;;;0.80;;
16928;SDS011;8581;47.334;11.190;2024-03-23T02:12:23;2.43;;;1.13;;
16928;SDS011;8581;47.334;11.190;2024-03-23T02:14:55;1.30;;;1.00;;
16928;SDS011;8581;47.334;11.190;2024-03-23T02:17:28;0.83;;;0.83;;
16928;SDS011;8581;47.334;11.190;2024-03-23T02:20:00;0.80;;;0.80;;
16928;SDS011;8581;47.334;11.190;2024-03-23T02:22:35;1.53;;;1.40;;
16928;SDS011;8581;47.334;11.190;2024-03-23T02:25:07;1.10;;;1.00;;
16928;SDS011;8581;47.334;11.190;2024-03-23T02:27:40;1.57;;;0.90;;
16928;SDS011;8581;47.334;11.190;2024-03-23T02:30:12;0.90;;;0.90;;
16928;SDS011;8581;47.334;11.190;2024-03-23T02:32:43;1.43;;;0.77;;
16928;SDS011;8581;47.334;11.190;2024-03-23T02:35:16;1.50;;;1.20;;
16928;SDS011;8581;47.334;11.190;2024-03-23T02:37:48;2.80;;;1.00;;
16928;SDS011;8581;47.334;11.190;2024-03-23T02:40:20;1.10;;;1.00;;
16928;SDS011;8581;47.334;11.190;2024-03-23T02:42:52;2.73;;;1.03;;
16928;SDS011;8581;47.334;11.190;2024-03-23T02:45:24;1.00;;;0.80;;
16928;SDS011;8581;47.334;11.190;2024-03-23T02:47:56;0.93;;;0.93;;
16928;SDS011;8581;47.334;11.190;2024-03-23T02:50:28;0.70;;;0.70;;
16928;SDS011;8581;47.334;11.190;2024-03-23T02:53:01;0.77;;;0.77;;
16928;SDS011;8581;47.334;11.190;2024-03-23T02:55:33;0.97;;;0.97;;
16928;SDS011;8581;47.334;11.190;2024-03-23T02:58:05;0.90;;;0.90;;
16928;SDS011;8581;47.334;11.190;2024-03-23T03:00:37;1.90;;;1.00;;
16928;SDS011;8581;47.334;11.190;2024-03-23T03:03:09;0.80;;;0.80;;
16928;SDS011;8581;47.334;11.190;2024-03-23T03:05:41;0.90;;;0.90;;
16928;SDS011;8581;47.334;11.190;2024-03-23T03:08:13;1.30;;;0.93;;
16928;SDS011;8581;47.334;11.190;2024-03-23T03:10:46;0.83;;;0.83;;
16928;SDS011;8581;47.334;11.190;2024-03-23T03:13:18;0.90;;;0.90;;
16928;SDS011;8581;47.334;11.190;2024-03-23T03:15:50;0.97;;;0.87;;
16928;SDS011;8581;47.334;11.190;2024-03-23T03:18:21;1.00;;;0.90;;
16928;SDS011;8581;47.334;11.190;2024-03-23T03:20:54;0.73;;;0.73;;
16928;SDS011;8581;47.334;11.190;2024-03-23T03:23:26;0.73;;;0.73;;
16928;SDS011;8581;47.334;11.190;2024-03-23T03:25:58;0.80;;;0.80;;
16928;SDS011;8581;47.334;11.190;2024-03-23T03:28:31;1.33;;;0.83;;
16928;SDS011;8581;47.334;11.190;2024-03-23T03:31:03;2.20;;;0.90;;
16928;SDS011;8581;47.334;11.190;2024-03-23T03:33:35;0.90;;;0.90;;
16928;SDS011;8581;47.334;11.190;2024-03-23T03:36:07;1.43;;;0.90;;
16928;SDS011;8581;47.334;11.190;2024-03-23T03:38:39;0.80;;;0.80;;
16928;SDS011;8581;47.334;11.190;2024-03-23T03:41:12;1.00;;;0.63;;
16928;SDS011;8581;47.334;11.190;2024-03-23T03:43:44;0.67;;;0.67;;
16928;SDS011;8581;47.334;11.190;2024-03-23T03:46:16;0.90;;;0.80;;
16928;SDS011;8581;47.334;11.190;2024-03-23T03:48:49;0.73;;;0.73;;
16928;SDS011;8581;47.334;11.190;2024-03-23T03:51:21;0.93;;;0.93;;
16928;SDS011;8581;47.334;11.190;2024-03-23T03:53:53;1.30;;;0.80;;
16928;SDS011;8581;47.334;11.190;2024-03-23T03:56:25;1.13;;;0.90;;
16928;SDS011;8581;47.334;11.190;2024-03-23T03:58:57;0.80;;;0.80;;
16928;SDS011;8581;47.334;11.190;2024-03-23T04:01:29;0.87;;;0.70;;
16928;SDS011;8581;47.334;11.190;2024-03-23T04:04:02;1.03;;;0.80;;
16928;SDS011;8581;47.334;11.190;2024-03-23T04:06:34;0.60;;;0.60;;
16928;SDS011;8581;47.334;11.190;2024-03-23T04:09:06;0.70;;;0.70;;
16928;SDS011;8581;47.334;11.190;2024-03-23T04:11:38;0.80;;;0.80;;
16928;SDS011;8581;47.334;11.190;2024-03-23T04:14:10;1.33;;;0.83;;
16928;SDS011;8581;47.334;11.190;2024-03-23T04:16:42;0.80;;;0.80;;
16928;SDS011;8581;47.334;11.190;2024-03-23T04:19:15;0.90;;;0.80;;
16928;SDS011;8581;47.334;11.190;2024-03-23T04:21:47;0.90;;;0.70;;
16928;SDS011;8581;47.334;11.190;2024-03-23T04:24:19;0.80;;;0.80;;
16928;SDS011;8581;47.334;11.190;2024-03-23T04:26:52;0.73;;;0.73;;
16928;SDS011;8581;47.334;11.190;2024-03-23T04:29:24;1.63;;;0.80;;
16928;SDS011;8581;47.334;11.190;2024-03-23T04:31:57;0.80;;;0.80;;
16928;SDS011;8581;47.334;11.190;2024-03-23T04:34:29;0.90;;;0.90;;
16928;SDS011;8581;47.334;11.190;2024-03-23T04:37:01;1.07;;;0.80;;
16928;SDS011;8581;47.334;11.190;2024-03-23T04:39:33;1.33;;;0.80;;
16928;SDS011;8581;47.334;11.190;2024-03-23T04:42:05;1.07;;;0.90;;
16928;SDS011;8581;47.334;11.190;2024-03-23T04:44:37;0.77;;;0.70;;
16928;SDS011;8581;47.334;11.190;2024-03-23T04:47:09;0.97;;;0.60;;
16928;SDS011;8581;47.334;11.190;2024-03-23T04:49:41;1.00;;;0.80;;
16928;SDS011;8581;47.334;11.190;2024-03-23T04:52:13;1.90;;;0.70;;
16928;SDS011;8581;47.334;11.190;2024-03-23T04:54:46;0.97;;;0.60;;
16928;SDS011;8581;47.334;11.190;2024-03-23T04:57:17;0.70;;;0.70;;
16928;SDS011;8581;47.334;11.190;2024-03-23T04:59:49;0.70;;;0.70;;
16928;SDS011;8581;47.334;11.190;2024-03-23T05:02:22;0.90;;;0.60;;
16928;SDS011;8581;47.334;11.190;2024-03-23T05:04:54;0.60;;;0.60;;
16928;SDS011;8581;47.334;11.190;2024-03-23T05:07:25;0.60;;;0.57;;
16928;SDS011;8581;47.334;11.190;2024-03-23T05:09:57;1.20;;;0.67;;
16928;SDS011;8581;47.334;11.190;2024-03-23T05:12:29;1.50;;;0.67;;
16928;SDS011;8581;47.334;11.190;2024-03-23T05:15:02;1.03;;;0.90;;
16928;SDS011;8581;47.334;11.190;2024-03-23T05:17:34;1.23;;;0.70;;
16928;SDS011;8581;47.334;11.190;2024-03-23T05:20:06;1.87;;;0.90;;
16928;SDS011;8581;47.334;11.190;2024-03-23T05:22:40;1.37;;;1.10;;
16928;SDS011;8581;47.334;11.190;2024-03-23T05:25:12;1.60;;;1.00;;
16928;SDS011;8581;47.334;11.190;2024-03-23T05:27:44;0.83;;;0.83;;
16928;SDS011;8581;47.334;11.190;2024-03-23T05:30:16;1.63;;;0.80;;
16928;SDS011;8581;47.334;11.190;2024-03-23T05:32:47;1.00;;;0.90;;
16928;SDS011;8581;47.334;11.190;2024-03-23T05:35:19;1.23;;;0.90;;
16928;SDS011;8581;47.334;11.190;2024-03-23T05:37:51;1.43;;;0.80;;
16928;SDS011;8581;47.334;11.190;2024-03-23T05:40:25;0.90;;;0.90;;
16928;SDS011;8581;47.334;11.190;2024-03-23T05:42:56;1.03;;;0.97;;
16928;SDS011;8581;47.334;11.190;2024-03-23T05:45:28;0.93;;;0.93;;
16928;SDS011;8581;47.334;11.190;2024-03-23T05:48:00;0.90;;;0.90;;
16928;SDS011;8581;47.334;11.190;2024-03-23T05:50:32;1.47;;;1.10;;
16928;SDS011;8581;47.334;11.190;2024-03-23T05:53:04;1.43;;;1.10;;
16928;SDS011;8581;47.334;11.190;2024-03-23T05:55:36;1.13;;;0.80;;
16928;SDS011;8581;47.334;11.190;2024-03-23T05:58:09;1.10;;;1.00;;
16928;SDS011;8581;47.334;11.190;2024-03-23T06:00:41;0.83;;;0.83;;
16928;SDS011;8581;47.334;11.190;2024-03-23T06:03:14;0.90;;;0.90;;
16928;SDS011;8581;47.334;11.190;2024-03-23T06:05:46;1.97;;;1.33;;
16928;SDS011;8581;47.334;11.190;2024-03-23T06:08:18;1.60;;;1.50;;
16928;SDS011;8581;47.334;11.190;2024-03-23T06:10:50;3.43;;;1.43;;
16928;SDS011;8581;47.334;11.190;2024-03-23T06:13:23;1.33;;;1.10;;
16928;SDS011;8581;47.334;11.190;2024-03-23T06:15:55;1.70;;;1.23;;
16928;SDS011;8581;47.334;11.190;2024-03-23T06:18:27;3.40;;;1.50;;
16928;SDS011;8581;47.334;11.190;2024-03-23T06:20:59;1.40;;;1.10;;
16928;SDS011;8581;47.334;11.190;2024-03-23T06:23:31;2.30;;;1.20;;
16928;SDS011;8581;47.334;11.190;2024-03-23T06:26:03;1.70;;;1.40;;
16928;SDS011;8581;47.334;11.190;2024-03-23T06:28:36;3.03;;;1.27;;
16928;SDS011;8581;47.334;11.190;2024-03-23T06:31:09;1.30;;;1.20;;
16928;SDS011;8581;47.334;11.190;2024-03-23T06:33:41;1.20;;;1.00;;
16928;SDS011;8581;47.334;11.190;2024-03-23T06:36:13;1.23;;;1.13;;
16928;SDS011;8581;47.334;11.190;2024-03-23T06:38:46;1.40;;;1.03;;
16928;SDS011;8581;47.334;11.190;2024-03-23T06:41:19;3.90;;;1.60;;
16928;SDS011;8581;47.334;11.190;2024-03-23T06:43:50;2.00;;;1.50;;
16928;SDS011;8581;47.334;11.190;2024-03-23T06:46:22;2.13;;;1.63;;
16928;SDS011;8581;47.334;11.190;2024-03-23T06:48:55;3.00;;;1.20;;
16928;SDS011;8581;47.334;11.190;2024-03-23T06:51:27;2.00;;;1.33;;
16928;SDS011;8581;47.334;11.190;2024-03-23T06:54:00;2.00;;;1.80;;
16928;SDS011;8581;47.334;11.190;2024-03-23T06:56:32;2.73;;;1.70;;
16928;SDS011;8581;47.334;11.190;2024-03-23T06:59:05;1.80;;;1.60;;
16928;SDS011;8581;47.334;11.190;2024-03-23T07:01:37;2.30;;;1.70;;
16928;SDS011;8581;47.334;11.190;2024-03-23T07:04:09;2.27;;;1.77;;
16928;SDS011;8581;47.334;11.190;2024-03-23T07:06:43;4.63;;;1.80;;
16928;SDS011;8581;47.334;11.190;2024-03-23T07:09:14;5.10;;;2.80;;
16928;SDS011;8581;47.334;11.190;2024-03-23T07:11:46;5.63;;;4.27;;
16928;SDS011;8581;47.334;11.190;2024-03-23T07:14:18;7.23;;;5.30;;
16928;SDS011;8581;47.334;11.190;2024-03-23T07:16:50;6.77;;;5.90;;
16928;SDS011;8581;47.334;11.190;2024-03-23T07:19:23;13.77;;;12.33;;
16928;SDS011;8581;47.334;11.190;2024-03-23T07:21:54;7.23;;;6.53;;
16928;SDS011;8581;47.334;11.190;2024-03-23T07:24:27;3.03;;;2.83;;
16928;SDS011;8581;47.334;11.190;2024-03-23T07:26:59;3.77;;;2.40;;
16928;SDS011;8581;47.334;11.190;2024-03-23T07:29:31;1.60;;;1.50;;
16928;SDS011;8581;47.334;11.190;2024-03-23T07:32:03;1.37;;;1.00;;
16928;SDS011;8581;47.334;11.190;2024-03-23T07:34:36;1.10;;;1.00;;
16928;SDS011;8581;47.334;11.190;2024-03-23T07:37:08;2.07;;;0.90;;
16928;SDS011;8581;47.334;11.190;2024-03-23T07:39:40;1.13;;;0.70;;
16928;SDS011;8581;47.334;11.190;2024-03-23T07:42:12;1.17;;;0.60;;
16928;SDS011;8581;47.334;11.190;2024-03-23T07:44:44;1.73;;;0.60;;
16928;SDS011;8581;47.334;11.190;2024-03-23T07:47:17;0.70;;;0.70;;
16928;SDS011;8581;47.334;11.190;2024-03-23T07:49:49;1.03;;;0.63;;
16928;SDS011;8581;47.334;11.190;2024-03-23T07:52:21;0.60;;;0.50;;
16928;SDS011;8581;47.334;11.190;2024-03-23T07:54:53;0.40;;;0.40;;
16928;SDS011;8581;47.334;11.190;2024-03-23T07:57:25;1.37;;;0.70;;
16928;SDS011;8581;47.334;11.190;2024-03-23T07:59:57;0.60;;;0.60;;
16928;SDS011;8581;47.334;11.190;2024-03-23T08:02:29;1.33;;;0.50;;
16928;SDS011;8581;47.334;11.190;2024-03-23T08:05:01;2.63;;;0.73;;
16928;SDS011;8581;47.334;11.190;2024-03-23T08:07:33;1.07;;;0.70;;
16928;SDS011;8581;47.334;11.190;2024-03-23T08:10:05;0.77;;;0.77;;
16928;SDS011;8581;47.334;11.190;2024-03-23T08:12:38;0.60;;;0.60;;
16928;SDS011;8581;47.334;11.190;2024-03-23T08:15:10;1.13;;;0.70;;
16928;SDS011;8581;47.334;11.190;2024-03-23T08:17:42;1.87;;;0.80;;
16928;SDS011;8581;47.334;11.190;2024-03-23T08:20:14;1.37;;;0.70;;
16928;SDS011;8581;47.334;11.190;2024-03-23T08:22:46;1.10;;;0.80;;
16928;SDS011;8581;47.334;11.190;2024-03-23T08:25:18;0.90;;;0.70;;
16928;SDS011;8581;47.334;11.190;2024-03-23T08:27:50;2.70;;;0.90;;
16928;SDS011;8581;47.334;11.190;2024-03-23T08:30:23;2.03;;;1.30;;
16928;SDS011;8581;47.334;11.190;2024-03-23T08:32:55;1.50;;;1.40;;
16928;SDS011;8581;47.334;11.190;2024-03-23T08:35:26;1.60;;;1.30;;
16928;SDS011;8581;47.334;11.190;2024-03-23T08:37:58;1.60;;;1.10;;
16928;SDS011;8581;47.334;11.190;2024-03-23T08:40:30;2.03;;;1.17;;
16928;SDS011;8581;47.334;11.190;2024-03-23T08:43:03;1.70;;;1.60;;
16928;SDS011;8581;47.334;11.190;2024-03-23T08:45:35;2.20;;;1.90;;
16928;SDS011;8581;47.334;11.190;2024-03-23T08:48:07;1.90;;;1.80;;
16928;SDS011;8581;47.334;11.190;2024-03-23T08:50:39;1.73;;;1.57;;
16928;SDS011;8581;47.334;11.190;2024-03-23T08:53:12;2.30;;;2.10;;
16928;SDS011;8581;47.334;11.190;2024-03-23T08:55:52;1.93;;;1.40;;
16928;SDS011;8581;47.334;11.190;2024-03-23T08:58:17;1.50;;;1.40;;
16928;SDS011;8581;47.334;11.190;2024-03-23T09:00:49;2.63;;;1.30;;
16928;SDS011;8581;47.334;11.190;2024-03-23T09:03:23;1.60;;;1.20;;
16928;SDS011;8581;47.334;11.190;2024-03-23T09:05:55;1.93;;;1.60;;
16928;SDS011;8581;47.334;11.190;2024-03-23T09:08:27;1.40;;;1.30;;
16928;SDS011;8581;47.334;11.190;2024-03-23T09:11:03;1.93;;;1.53;;
16928;SDS011;8581;47.334;11.190;2024-03-23T09:13:33;3.00;;;1.40;;
16928;SDS011;8581;47.334;11.190;2024-03-23T09:16:04;1.50;;;1.40;;
16928;SDS011;8581;47.334;11.190;2024-03-23T09:18:37;2.33;;;1.37;;
16928;SDS011;8581;47.334;11.190;2024-03-23T09:21:11;1.40;;;1.20;;
16928;SDS011;8581;47.334;11.190;2024-03-23T09:23:43;1.95;;;1.00;;
16928;SDS011;8581;47.334;11.190;2024-03-23T09:26:15;1.20;;;0.80;;
16928;SDS011;8581;47.334;11.190;2024-03-23T09:28:49;1.02;;;0.88;;
16928;SDS011;8581;47.334;11.190;2024-03-23T09:31:22;0.75;;;0.75;;
16928;SDS011;8581;47.334;11.190;2024-03-23T09:33:54;1.92;;;0.72;;
16928;SDS011;8581;47.334;11.190;2024-03-23T09:36:26;1.25;;;0.70;;
16928;SDS011;8581;47.334;11.190;2024-03-23T09:38:59;0.70;;;0.70;;
16928;SDS011;8581;47.334;11.190;2024-03-23T09:41:31;1.72;;;0.70;;
16928;SDS011;8581;47.334;11.190;2024-03-23T09:44:03;0.80;;;0.70;;
16928;SDS011;8581;47.334;11.190;2024-03-23T09:46:35;2.12;;;0.72;;
16928;SDS011;8581;47.334;11.190;2024-03-23T09:49:08;0.85;;;0.70;;
16928;SDS011;8581;47.334;11.190;2024-03-23T09:51:40;0.70;;;0.70;;
16928;SDS011;8581;47.334;11.190;2024-03-23T09:54:12;0.60;;;0.60;;
16928;SDS011;8581;47.334;11.190;2024-03-23T09:56:44;1.65;;;0.88;;
16928;SDS011;8581;47.334;11.190;2024-03-23T09:59:16;1.12;;;0.80;;
16928;SDS011;8581;47.334;11.190;2024-03-23T10:01:48;0.95;;;0.80;;
16928;SDS011;8581;47.334;11.190;2024-03-23T10:07:14;1.00;;;0.90;;
16928;SDS011;8581;47.334;11.190;2024-03-23T10:09:46;1.33;;;0.70;;
16928;SDS011;8581;47.334;11.190;2024-03-23T10:12:18;0.63;;;0.60;;
16928;SDS011;8581;47.334;11.190;2024-03-23T10:14:51;1.25;;;0.90;;
16928;SDS011;8581;47.334;11.190;2024-03-23T10:17:23;0.67;;;0.60;;
16928;SDS011;8581;47.334;11.190;2024-03-23T10:19:55;1.77;;;1.00;;
16928;SDS011;8581;47.334;11.190;2024-03-23T10:22:27;3.73;;;0.70;;
16928;SDS011;8581;47.334;11.190;2024-03-23T10:25:07;0.73;;;0.60;;
16928;SDS011;8581;47.334;11.190;2024-03-23T10:27:32;2.00;;;0.60;;
16928;SDS011;8581;47.334;11.190;2024-03-23T10:30:10;0.57;;;0.57;;
16928;SDS011;8581;47.334;11.190;2024-03-23T10:32:43;2.43;;;0.60;;
16928;SDS011;8581;47.334;11.190;2024-03-23T10:35:17;0.20;;;0.20;;
16928;SDS011;8581;47.334;11.190;2024-03-23T10:37:50;1.50;;;0.30;;
16928;SDS011;8581;47.334;11.190;2024-03-23T10:40:22;0.10;;;0.10;;
16928;SDS011;8581;47.334;11.190;2024-03-23T10:42:55;0.30;;;0.30;;
16928;SDS011;8581;47.334;11.190;2024-03-23T10:45:27;0.40;;;0.40;;
16928;SDS011;8581;47.334;11.190;2024-03-23T10:47:59;0.40;;;0.33;;
16928;SDS011;8581;47.334;11.190;2024-03-23T10:50:31;0.20;;;0.20;;
16928;SDS011;8581;47.334;11.190;2024-03-23T10:53:03;0.17;;;0.17;;
16928;SDS011;8581;47.334;11.190;2024-03-23T10:55:35;0.20;;;0.20;;
16928;SDS011;8581;47.334;11.190;2024-03-23T10:58:08;0.40;;;0.40;;
16928;SDS011;8581;47.334;11.190;2024-03-23T11:00:40;0.27;;;0.27;;
16928;SDS011;8581;47.334;11.190;2024-03-23T11:05:56;0.87;;;0.20;;
16928;SDS011;8581;47.334;11.190;2024-03-23T11:08:31;0.10;;;0.10;;
16928;SDS011;8581;47.334;11.190;2024-03-23T11:13:44;0.77;;;0.17;;
16928;SDS011;8581;47.334;11.190;2024-03-23T11:16:17;0.37;;;0.10;;
16928;SDS011;8581;47.334;11.190;2024-03-23T11:18:53;0.10;;;0.10;;
16928;SDS011;8581;47.334;11.190;2024-03-23T11:24:12;0.10;;;0.03;;
16928;SDS011;8581;47.334;11.190;2024-03-23T11:26:44;0.20;;;0.20;;
16928;SDS011;8581;47.334;11.190;2024-03-23T11:29:16;0.23;;;0.20;;
16928;SDS011;8581;47.334;11.190;2024-03-23T11:31:49;0.10;;;0.10;;
16928;SDS011;8581;47.334;11.190;2024-03-23T11:34:20;0.50;;;0.50;;
16928;SDS011;8581;47.334;11.190;2024-03-23T11:37:00;0.53;;;0.20;;
16928;SDS011;8581;47.334;11.190;2024-03-23T11:39:24;0.20;;;0.20;;
16928;SDS011;8581;47.334;11.190;2024-03-23T11:41:57;0.00;;;0.00;;
16928;SDS011;8581;47.334;11.190;2024-03-23T11:44:29;0.00;;;0.00;;
16928;SDS011;8581;47.334;11.190;2024-03-23T11:47:08;0.37;;;0.10;;
16928;SDS011;8581;47.334;11.190;2024-03-23T11:49:41;0.47;;;0.20;;
16928;SDS011;8581;47.334;11.190;2024-03-23T11:52:13;0.10;;;0.10;;
16928;SDS011;8581;47.334;11.190;2024-03-23T11:54:45;0.30;;;0.20;;
16928;SDS011;8581;47.334;11.190;2024-03-23T11:57:17;0.20;;;0.20;;
16928;SDS011;8581;47.334;11.190;2024-03-23T11:59:49;0.10;;;0.10;;
16928;SDS011;8581;47.334;11.190;2024-03-23T12:02:21;0.20;;;0.10;;
16928;SDS011;8581;47.334;11.190;2024-03-23T12:04:53;0.20;;;0.20;;
16928;SDS011;8581;47.334;11.190;2024-03-23T12:07:25;0.50;;;0.50;;
16928;SDS011;8581;47.334;11.190;2024-03-23T12:10:03;0.37;;;0.37;;
16928;SDS011;8581;47.334;11.190;2024-03-23T12:12:39;0.37;;;0.30;;
16928;SDS011;8581;47.334;11.190;2024-03-23T12:15:10;0.00;;;0.00;;
16928;SDS011;8581;47.334;11.190;2024-03-23T12:17:42;0.07;;;0.07;;
16928;SDS011;8581;47.334;11.190;2024-03-23T12:20:14;0.00;;;0.00;;
16928;SDS011;8581;47.334;11.190;2024-03-23T12:22:47;0.43;;;0.00;;
16928;SDS011;8581;47.334;11.190;2024-03-23T12:25:19;0.10;;;0.10;;
16928;SDS011;8581;47.334;11.190;2024-03-23T12:27:51;0.50;;;0.50;;
16928;SDS011;8581;47.334;11.190;2024-03-23T12:30:23;0.20;;;0.20;;
16928;SDS011;8581;47.334;11.190;2024-03-23T12:32:55;0.10;;;0.10;;
16928;SDS011;8581;47.334;11.190;2024-03-23T12:35:27;1.33;;;0.30;;
16928;SDS011;8581;47.334;11.190;2024-03-23T12:37:59;0.17;;;0.17;;
16928;SDS011;8581;47.334;11.190;2024-03-23T12:40:32;0.40;;;0.40;;
16928;SDS011;8581;47.334;11.190;2024-03-23T12:43:04;0.47;;;0.47;;
16928;SDS011;8581;47.334;11.190;2024-03-23T12:45:36;0.40;;;0.40;;
16928;SDS011;8581;47.334;11.190;2024-03-23T12:48:08;0.50;;;0.50;;
16928;SDS011;8581;47.334;11.190;2024-03-23T12:50:40;0.80;;;0.70;;
16928;SDS011;8581;47.334;11.190;2024-03-23T12:53:12;0.37;;;0.37;;
16928;SDS011;8581;47.334;11.190;2024-03-23T12:55:44;0.83;;;0.40;;
16928;SDS011;8581;47.334;11.190;2024-03-23T12:58:17;0.30;;;0.30;;
16928;SDS011;8581;47.334;11.190;2024-03-23T13:00:49;0.37;;;0.37;;
16928;SDS011;8581;47.334;11.190;2024-03-23T13:03:21;0.50;;;0.50;;
16928;SDS011;8581;47.334;11.190;2024-03-23T13:05:53;0.63;;;0.60;;
16928;SDS011;8581;47.334;11.190;2024-03-23T13:08:29;0.73;;;0.50;;
16928;SDS011;8581;47.334;11.190;2024-03-23T13:11:01;0.63;;;0.60;;
16928;SDS011;8581;47.334;11.190;2024-03-23T13:13:33;0.80;;;0.80;;
16928;SDS011;8581;47.334;11.190;2024-03-23T13:16:05;0.60;;;0.60;;
16928;SDS011;8581;47.334;11.190;2024-03-23T13:18:37;0.80;;;0.50;;
16928;SDS011;8581;47.334;11.190;2024-03-23T13:21:09;1.97;;;0.50;;
16928;SDS011;8581;47.334;11.190;2024-03-23T13:23:41;0.60;;;0.60;;
16928;SDS011;8581;47.334;11.190;2024-03-23T13:26:13;0.50;;;0.50;;
16928;SDS011;8581;47.334;11.190;2024-03-23T13:28:45;0.50;;;0.50;;
16928;SDS011;8581;47.334;11.190;2024-03-23T13:31:17;0.50;;;0.50;;
16928;SDS011;8581;47.334;11.190;2024-03-23T13:33:48;0.67;;;0.50;;
16928;SDS011;8581;47.334;11.190;2024-03-23T13:36:20;0.80;;;0.47;;
16928;SDS011;8581;47.334;11.190;2024-03-23T13:38:52;1.27;;;0.67;;
16928;SDS011;8581;47.334;11.190;2024-03-23T13:41:23;0.53;;;0.40;;
16928;SDS011;8581;47.334;11.190;2024-03-23T13:43:55;0.70;;;0.50;;
16928;SDS011;8581;47.334;11.190;2024-03-23T13:46:27;0.53;;;0.40;;
16928;SDS011;8581;47.334;11.190;2024-03-23T13:48:58;1.00;;;0.60;;
16928;SDS011;8581;47.334;11.190;2024-03-23T13:51:30;0.40;;;0.40;;
16928;SDS011;8581;47.334;11.190;2024-03-23T13:54:02;1.03;;;0.50;;
16928;SDS011;8581;47.334;11.190;2024-03-23T13:56:33;0.70;;;0.60;;
16928;SDS011;8581;47.334;11.190;2024-03-23T13:59:05;0.57;;;0.50;;
16928;SDS011;8581;47.334;11.190;2024-03-23T14:01:37;0.77;;;0.60;;
16928;SDS011;8581;47.334;11.190;2024-03-23T14:04:09;0.60;;;0.60;;
16928;SDS011;8581;47.334;11.190;2024-03-23T14:06:40;0.70;;;0.60;;
16928;SDS011;8581;47.334;11.190;2024-03-23T14:09:12;1.00;;;0.70;;
16928;SDS011;8581;47.334;11.190;2024-03-23T14:11:44;1.60;;;0.90;;
16928;SDS011;8581;47.334;11.190;2024-03-23T14:14:16;0.53;;;0.50;;
16928;SDS011;8581;47.334;11.190;2024-03-23T14:16:48;0.70;;;0.70;;
16928;SDS011;8581;47.334;11.190;2024-03-23T14:19:19;0.80;;;0.63;;
16928;SDS011;8581;47.334;11.190;2024-03-23T14:21:51;1.00;;;0.73;;
16928;SDS011;8581;47.334;11.190;2024-03-23T14:24:23;1.70;;;0.80;;
16928;SDS011;8581;47.334;11.190;2024-03-23T14:26:55;1.53;;;0.70;;
16928;SDS011;8581;47.334;11.190;2024-03-23T14:29:27;1.43;;;0.80;;
16928;SDS011;8581;47.334;11.190;2024-03-23T14:31:58;0.53;;;0.50;;
16928;SDS011;8581;47.334;11.190;2024-03-23T14:34:30;1.20;;;0.70;;
16928;SDS011;8581;47.334;11.190;2024-03-23T14:37:02;1.37;;;0.70;;
16928;SDS011;8581;47.334;11.190;2024-03-23T14:39:33;0.70;;;0.70;;
16928;SDS011;8581;47.334;11.190;2024-03-23T14:42:05;0.93;;;0.60;;
16928;SDS011;8581;47.334;11.190;2024-03-23T14:44:37;0.80;;;0.80;;
16928;SDS011;8581;47.334;11.190;2024-03-23T14:47:09;1.53;;;0.90;;
16928;SDS011;8581;47.334;11.190;2024-03-23T14:49:41;1.47;;;0.80;;
16928;SDS011;8581;47.334;11.190;2024-03-23T14:52:13;1.43;;;0.80;;
16928;SDS011;8581;47.334;11.190;2024-03-23T14:54:45;1.00;;;0.87;;
16928;SDS011;8581;47.334;11.190;2024-03-23T14:57:16;1.53;;;0.80;;
16928;SDS011;8581;47.334;11.190;2024-03-23T14:59:48;0.90;;;0.90;;
16928;SDS011;8581;47.334;11.190;2024-03-23T15:02:20;1.03;;;0.90;;
16928;SDS011;8581;47.334;11.190;2024-03-23T15:04:52;1.17;;;0.73;;
16928;SDS011;8581;47.334;11.190;2024-03-23T15:07:23;0.90;;;0.70;;
16928;SDS011;8581;47.334;11.190;2024-03-23T15:09:55;1.77;;;0.90;;
16928;SDS011;8581;47.334;11.190;2024-03-23T15:12:27;3.10;;;0.90;;
16928;SDS011;8581;47.334;11.190;2024-03-23T15:14:59;0.70;;;0.60;;
16928;SDS011;8581;47.334;11.190;2024-03-23T15:17:30;0.70;;;0.60;;
16928;SDS011;8581;47.334;11.190;2024-03-23T15:20:02;0.73;;;0.60;;
16928;SDS011;8581;47.334;11.190;2024-03-23T15:22:35;1.83;;;0.87;;
16928;SDS011;8581;47.334;11.190;2024-03-23T15:25:07;1.07;;;0.60;;
16928;SDS011;8581;47.334;11.190;2024-03-23T15:27:39;3.60;;;1.10;;
16928;SDS011;8581;47.334;11.190;2024-03-23T15:30:11;0.60;;;0.60;;
16928;SDS011;8581;47.334;11.190;2024-03-23T15:32:44;0.80;;;0.70;;
16928;SDS011;8581;47.334;11.190;2024-03-23T15:35:15;0.93;;;0.60;;
16928;SDS011;8581;47.334;11.190;2024-03-23T15:37:47;1.43;;;0.73;;
16928;SDS011;8581;47.334;11.190;2024-03-23T15:40:20;2.97;;;0.70;;
16928;SDS011;8581;47.334;11.190;2024-03-23T15:42:52;1.33;;;0.83;;
16928;SDS011;8581;47.334;11.190;2024-03-23T15:45:24;1.70;;;1.40;;
16928;SDS011;8581;47.334;11.190;2024-03-23T15:47:56;0.77;;;0.63;;
16928;SDS011;8581;47.334;11.190;2024-03-23T15:50:29;0.73;;;0.60;;
16928;SDS011;8581;47.334;11.190;2024-03-23T15:53:01;1.27;;;0.80;;
16928;SDS011;8581;47.334;11.190;2024-03-23T15:55:33;1.37;;;0.67;;
16928;SDS011;8581;47.334;11.190;2024-03-23T15:58:05;0.70;;;0.50;;
16928;SDS011;8581;47.334;11.190;2024-03-23T16:00:37;1.10;;;0.60;;
16928;SDS011;8581;47.334;11.190;2024-03-23T16:03:09;0.50;;;0.50;;
16928;SDS011;8581;47.334;11.190;2024-03-23T16:05:41;0.50;;;0.50;;
16928;SDS011;8581;47.334;11.190;2024-03-23T16:08:14;6.15;;;0.80;;
16928;SDS011;8581;47.334;11.190;2024-03-23T16:10:46;0.33;;;0.33;;
16928;SDS011;8581;47.334;11.190;2024-03-23T16:13:18;0.57;;;0.50;;
16928;SDS011;8581;47.334;11.190;2024-03-23T16:15:54;0.50;;;0.50;;
16928;SDS011;8581;47.334;11.190;2024-03-23T16:18:26;0.55;;;0.53;;
16928;SDS011;8581;47.334;11.190;2024-03-23T16:20:59;1.00;;;0.93;;
16928;SDS011;8581;47.334;11.190;2024-03-23T16:23:32;0.82;;;0.60;;